| time (UTC) | temp F | wind direction | speed MPH | gust MPH | rain 1hr in | rain 24hr in | rain mn in | humidity % | barometer mb |
| 20260508013048 | 68 | 214 | 2.0 | 7.0 | 0.00 | 0.00 | 0.00 | 33 | 1006.9 |
| 20260508011551 | 70 | 205 | 4.0 | 7.0 | 0.00 | 0.00 | 0.00 | 30 | 1006.9 |
| 20260508010045 | 73 | 233 | 1.0 | 5.0 | 0.00 | 0.00 | 0.00 | 30 | 1006.9 |
| 20260508004544 | 74 | 218 | 2.0 | 10.0 | 0.00 | 0.00 | 0.00 | 27 | 1007.0 |
| 20260508003042 | 75 | 242 | 3.0 | 11.0 | 0.00 | 0.00 | 0.00 | 26 | 1007.0 |
| 20260508001540 | 76 | 222 | 5.0 | 13.0 | 0.00 | 0.00 | 0.00 | 24 | 1007.2 |
| 20260508000044 | 76 | 256 | 6.0 | 11.0 | 0.00 | 0.00 | 0.00 | 22 | 1007.3 |
| 20260507234543 | 76 | 269 | 8.0 | 16.0 | 0.00 | 0.00 | 0.00 | 22 | 1007.5 |
| 20260507233035 | 76 | 242 | 10.0 | 14.0 | 0.00 | 0.00 | 0.00 | 21 | 1007.6 |
| 20260507231534 | 76 | 230 | 10.0 | 18.0 | 0.00 | 0.00 | 0.00 | 22 | 1007.8 |
| 20260507230023 | 76 | 267 | 7.0 | 19.0 | 0.00 | 0.00 | 0.00 | 21 | 1008.0 |
| 20260507224524 | 76 | 244 | 7.0 | 13.0 | 0.00 | 0.02 | 0.00 | 23 | 1008.1 |
| 20260507223019 | 76 | 228 | 7.0 | 12.0 | 0.00 | 0.02 | 0.00 | 22 | 1008.2 |
| 20260507221518 | 76 | 258 | 8.0 | 19.0 | 0.00 | 0.02 | 0.00 | 22 | 1008.5 |
| 20260507220043 | 75 | 252 | 8.0 | 13.0 | 0.00 | 0.02 | 0.00 | 23 | 1008.8 |
| 20260507214545 | 75 | 248 | 10.0 | 18.0 | 0.00 | 0.03 | 0.00 | 22 | 1009.0 |
| 20260507213040 | 75 | 245 | 13.0 | 19.0 | 0.00 | 0.03 | 0.00 | 23 | 1009.4 |
| 20260507211545 | 75 | 296 | 10.0 | 16.0 | 0.00 | 0.03 | 0.00 | 23 | 1009.6 |
| 20260507210030 | 75 | 246 | 8.0 | 21.0 | 0.00 | 0.03 | 0.00 | 23 | 1010.0 |
| 20260507204527 | 74 | 261 | 12.0 | 18.0 | 0.00 | 0.04 | 0.00 | 25 | 1010.2 |
| 20260507203023 | 74 | 238 | 11.0 | 22.0 | 0.00 | 0.04 | 0.00 | 24 | 1010.4 |
| 20260507201519 | 73 | 266 | 8.0 | 17.0 | 0.00 | 0.04 | 0.00 | 24 | 1010.6 |
| 20260507200016 | 73 | 229 | 11.0 | 17.0 | 0.00 | 0.04 | 0.00 | 24 | 1010.9 |
| 20260507194515 | 73 | 222 | 11.0 | 19.0 | 0.00 | 0.04 | 0.00 | 24 | 1011.1 |
| 20260507193048 | 73 | 294 | 10.0 | 19.0 | 0.00 | 0.04 | 0.00 | 26 | 1011.4 |
| 20260507191538 | 72 | 215 | 12.0 | 20.0 | 0.00 | 0.04 | 0.00 | 26 | 1011.8 |
| 20260507190030 | 72 | 261 | 14.0 | 22.0 | 0.00 | 0.04 | 0.00 | 26 | 1012.1 |
| 20260507184527 | 71 | 243 | 10.0 | 23.0 | 0.00 | 0.04 | 0.00 | 27 | 1012.3 |
| 20260507183024 | 71 | 252 | 11.0 | 21.0 | 0.00 | 0.04 | 0.00 | 28 | 1012.5 |
| 20260507181520 | 70 | 226 | 14.0 | 22.0 | 0.00 | 0.04 | 0.00 | 31 | 1012.7 |
| 20260507180018 | 69 | 249 | 17.0 | 24.0 | 0.00 | 0.04 | 0.00 | 33 | 1013.0 |
| 20260507174537 | 68 | 256 | 18.0 | 26.0 | 0.00 | 0.05 | 0.00 | 31 | 1013.3 |
| 20260507173013 | 67 | 250 | 15.0 | 23.0 | 0.00 | 0.05 | 0.00 | 38 | 1013.5 |
| 20260507171505 | 66 | 250 | 17.0 | 28.0 | 0.00 | 0.05 | 0.00 | 38 | 1014.0 |
| 20260507170002 | 65 | 252 | 17.0 | 24.0 | 0.00 | 0.05 | 0.00 | 45 | 1014.1 |
| 20260507164557 | 63 | 230 | 18.0 | 24.0 | 0.00 | 0.09 | 0.00 | 47 | 1014.4 |
| 20260507163054 | 62 | 222 | 16.0 | 23.0 | 0.00 | 0.09 | 0.00 | 51 | 1014.4 |
| 20260507161550 | 60 | 247 | 17.0 | 23.0 | 0.00 | 0.09 | 0.00 | 54 | 1014.5 |
| 20260507160109 | 58 | 254 | 16.0 | 22.0 | 0.00 | 0.09 | 0.00 | 58 | 1014.8 |
| 20260507154540 | 57 | 250 | 15.0 | 23.0 | 0.00 | 0.15 | 0.00 | 60 | 1015.0 |
| 20260507153035 | 55 | 271 | 15.0 | 21.0 | 0.00 | 0.15 | 0.00 | 66 | 1015.2 |
| 20260507151529 | 54 | 254 | 15.0 | 22.0 | 0.00 | 0.15 | 0.00 | 69 | 1015.4 |
| 20260507150025 | 52 | 252 | 16.0 | 23.0 | 0.00 | 0.15 | 0.00 | 70 | 1015.5 |
| 20260507144521 | 50 | 252 | 14.0 | 23.0 | 0.00 | 0.18 | 0.00 | 73 | 1015.5 |
| 20260507143018 | 49 | 252 | 14.0 | 24.0 | 0.00 | 0.18 | 0.00 | 75 | 1015.7 |
| 20260507141509 | 48 | 268 | 13.0 | 25.0 | 0.00 | 0.18 | 0.00 | 77 | 1015.6 |
| 20260507140009 | 46 | 225 | 16.0 | 24.0 | 0.00 | 0.18 | 0.00 | 79 | 1015.9 |
| 20260507134501 | 44 | 263 | 13.0 | 19.0 | 0.00 | 0.20 | 0.00 | 83 | 1016.1 |
| 20260507133104 | 42 | 250 | 13.0 | 21.0 | 0.00 | 0.20 | 0.00 | 84 | 1016.0 |
| 20260507131615 | 40 | 246 | 15.0 | 21.0 | 0.00 | 0.20 | 0.00 | 86 | 1016.1 |
| 20260507130047 | 38 | 251 | 12.0 | 17.0 | 0.00 | 0.20 | 0.00 | 87 | 1016.0 |
| 20260507124551 | 37 | 258 | 13.0 | 19.0 | 0.00 | 0.22 | 0.00 | 89 | 1016.1 |
| 20260507123044 | 35 | 228 | 6.0 | 12.0 | 0.00 | 0.22 | 0.00 | 89 | 1016.1 |
| 20260507121508 | 35 | 244 | 6.0 | 9.0 | 0.00 | 0.22 | 0.00 | 89 | 1016.2 |
| 20260507120006 | 35 | 222 | 5.0 | 10.0 | 0.00 | 0.22 | 0.00 | 89 | 1016.4 |
| 20260507114501 | 35 | 209 | 7.0 | 12.0 | 0.00 | 0.24 | 0.00 | 90 | 1016.5 |
| 20260507113134 | 34 | 254 | 8.0 | 12.0 | 0.00 | 0.24 | 0.00 | 90 | 1016.6 |
| 20260507111558 | 34 | 239 | 9.0 | 14.0 | 0.00 | 0.24 | 0.00 | 90 | 1016.8 |
| 20260507110058 | 34 | 246 | 7.0 | 14.0 | 0.00 | 0.24 | 0.00 | 90 | 1016.8 |
| 20260507104525 | 34 | 237 | 8.0 | 12.0 | 0.00 | 0.28 | 0.00 | 90 | 1017.0 |
| 20260507103022 | 33 | 267 | 8.0 | 11.0 | 0.00 | 0.28 | 0.00 | 90 | 1017.0 |
| 20260507101554 | 33 | 234 | 7.0 | 11.0 | 0.00 | 0.28 | 0.00 | 90 | 1017.2 |
| 20260507100056 | 34 | 215 | 4.0 | 9.0 | 0.00 | 0.28 | 0.00 | 90 | 1017.4 |
| 20260507094518 | 34 | 226 | 5.0 | 11.0 | 0.00 | 0.28 | 0.00 | 90 | 1017.5 |
| 20260507093015 | 34 | 248 | 7.0 | 14.0 | 0.00 | 0.28 | 0.00 | 90 | 1017.6 |
| 20260507091510 | 35 | 236 | 9.0 | 14.0 | 0.00 | 0.28 | 0.00 | 91 | 1017.9 |
| 20260507090007 | 34 | 244 | 8.0 | 14.0 | 0.00 | 0.28 | 0.00 | 91 | 1018.0 |
| 20260507084509 | 33 | 248 | 6.0 | 12.0 | 0.00 | 0.30 | 0.00 | 91 | 1017.9 |
| 20260507083007 | 33 | 238 | 6.0 | 11.0 | 0.00 | 0.30 | 0.00 | 91 | 1018.3 |
| 20260507081558 | 33 | 240 | 5.0 | 9.0 | 0.00 | 0.30 | 0.00 | 91 | 1018.5 |
| 20260507080056 | 33 | 245 | 5.0 | 9.0 | 0.00 | 0.30 | 0.00 | 91 | 1018.7 |
| 20260507074554 | 33 | 254 | 5.0 | 10.0 | 0.00 | 0.31 | 0.00 | 91 | 1018.9 |
| 20260507073057 | 33 | 221 | 3.0 | 8.0 | 0.00 | 0.31 | 0.00 | 90 | 1019.0 |
| 20260507071548 | 34 | 248 | 3.0 | 10.0 | 0.00 | 0.31 | 0.00 | 91 | 1019.1 |
| 20260507070057 | 34 | 256 | 4.0 | 10.0 | 0.00 | 0.31 | 0.00 | 91 | 1019.3 |
| 20260507064546 | 34 | 227 | 5.0 | 9.0 | 0.00 | 0.32 | 0.00 | 90 | 1019.4 |
| 20260507063040 | 34 | 229 | 3.0 | 9.0 | 0.00 | 0.32 | 0.00 | 90 | 1019.6 |
| 20260507061538 | 35 | 216 | 3.0 | 8.0 | 0.00 | 0.32 | 0.00 | 90 | 1019.8 |
| 20260507060037 | 35 | 228 | 3.0 | 7.0 | 0.00 | 0.32 | 0.00 | 90 | 1019.9 |
| 20260507054538 | 35 | 243 | 3.0 | 10.0 | 0.00 | 0.33 | 0.00 | 90 | 1019.9 |
| 20260507053029 | 35 | 224 | 3.0 | 7.0 | 0.00 | 0.33 | 0.00 | 90 | 1020.1 |
| 20260507051627 | 35 | 222 | 1.0 | 7.0 | 0.00 | 0.33 | 0.00 | 90 | 1020.1 |
| 20260507050106 | 35 | 196 | 3.0 | 7.0 | 0.00 | 0.33 | 0.00 | 90 | 1020.1 |
| 20260507044556 | 35 | 198 | 3.0 | 6.0 | 0.00 | 0.38 | 0.33 | 90 | 1020.2 |
| 20260507043050 | 36 | 229 | 3.0 | 8.0 | 0.00 | 0.38 | 0.33 | 90 | 1020.4 |
| 20260507041549 | 36 | 205 | 2.0 | 7.0 | 0.00 | 0.38 | 0.33 | 90 | 1020.5 |
| 20260507040050 | 36 | 202 | 2.0 | 7.0 | 0.00 | 0.38 | 0.33 | 90 | 1020.5 |
| 20260507034548 | 36 | 257 | 4.0 | 8.0 | 0.00 | 0.49 | 0.33 | 90 | 1020.4 |
| 20260507033047 | 36 | 198 | 4.0 | 7.0 | 0.00 | 0.49 | 0.33 | 89 | 1020.3 |
| 20260507031543 | 37 | 209 | 4.0 | 7.0 | 0.00 | 0.49 | 0.33 | 89 | 1020.3 |
| 20260507030045 | 37 | 210 | 3.0 | 6.0 | 0.00 | 0.49 | 0.33 | 89 | 1020.0 |
| 20260507024546 | 37 | 219 | 1.0 | 7.0 | 0.00 | 0.51 | 0.33 | 88 | 1020.0 |
| 20260507023039 | 38 | 216 | 3.0 | 6.0 | 0.00 | 0.51 | 0.33 | 88 | 1019.7 |
| 20260507021550 | 39 | 229 | 4.0 | 9.0 | 0.00 | 0.51 | 0.33 | 87 | 1019.6 |
| 20260507020037 | 40 | 243 | 3.0 | 8.0 | 0.00 | 0.51 | 0.33 | 86 | 1019.5 |
| 20260507014536 | 41 | 243 | 5.0 | 8.0 | 0.00 | 0.51 | 0.33 | 86 | 1019.5 |